Lefor, ND (58641)

8:08 PM MDT on August 31, 2015 (GMT -0600)
Dickinson Municipal | | Change Station
CLOSE
Current Station
Airport
Location: Dickinson,
Elevation: 2592 ft
Nearby Weather Stations

Elev 2592 ft 46.80 °N, 102.80 °W | Updated 12 minutes ago

Clear
Clear
65 °F
Feels Like 65 °F
N
5
Wind Variable Wind from South

Today
High -- | Low -- °F
--% Chance of Precip.
Yesterday
High -- | Low -- °F
Precip. -- in
6:09 AM 7:32 PM
Waning Gibbous, 92% visible
Pressure 29.87 in
Visibility 10.0 miles
Clouds Clear
Dew Point 42 °F
Humidity 43%
Rainfall 0.00 in
Snow Depth Not available.
UV 0 out of 12
Pollen 10.60 out of 12
Air Quality Not available.
Flu Activity Not available.
METAR KDIK 010156Z AUTO 18004KT 10SM CLR 18/06 A2989 RMK AO2 SLP113 T01830056
Pressure 29.87 in
Visibility 10.0 miles
Clouds Clear
Dew Point 42 °F
Humidity 43%
Rainfall 0.00 in
Snow Depth Not available.
UV 0 out of 12
Pollen 10.60 out of 12
Air Quality Not available.
Flu Activity Not available.
METAR KDIK 010156Z AUTO 18004KT 10SM CLR 18/06 A2989 RMK AO2 SLP113 T01830056

10-Day Weather Forecast

×

Almanac

Astronomy

Aug. 31, 2015 Rise Set
Actual Time
Civil Twilight
Nautical Twilight
Astronomical Twilight
Moon
Length of Visible Light
Length of Day
Tomorrow will be .
, % of the Moon is Illuminated

Today's Extremes

State Highs State Lows

Community

WunderPhotos

Upload Photos

1,851,441 photos uploaded!

WunderBlogs® & News

Nearby

Air Quality

  Air Quality AQ Index Pollutant
Not available.

Snow Depth

Station Depth Elevation

Earthquake Activity

City Distance Mag. Time & Date
Minimum magnitude displayed is 2.5.

Coastal Water Temperatures

Place Temperature

Stations

Nearby Weather Stations

Station Location Temp. Windchill Dew Point Humidity Wind Precip. Elev Updated Type